Time;durP1;ratioP1;P1;durP2;ratioP2;P2;SDS_P1;SDS_P2;PMS_P1;PMS_P2;Temp;Humidity;BMP_temperature;BMP_pressure;BME280_temperature;BME280_humidity;BME280_pressure;Samples;Min_cycle;Max_cycle;Signal;HPM_P1;HPM_P2
2022/05/07 00:01:52;;;;;;;;;;;12.60;99.90;;;;;;5072195;28;20015;-79
2022/05/07 00:04:18;;;;;;;;;;;12.60;99.90;;;;;;5083932;28;20436;-78
2022/05/07 00:06:45;;;;;;;;;;;12.60;99.90;;;;;;5064232;28;19974;-79
2022/05/07 00:09:11;;;;;;;;;;;12.60;99.90;;;;;;5063298;28;19928;-79
2022/05/07 00:11:38;;;;;;;;;;;12.60;99.90;;;;;;5054655;28;19931;-79
2022/05/07 00:14:04;;;;;;;;;;;12.50;99.90;;;;;;5079001;28;20027;-80
2022/05/07 00:19:15;;;;;;;;;;;12.50;99.90;;;;;;5081959;28;19928;-79
2022/05/07 00:21:42;;;;;;;;;;;12.50;99.90;;;;;;5071989;28;19928;-81
2022/05/07 00:24:09;;;;;;;;;;;12.40;99.90;;;;;;5079427;28;20397;-78
2022/05/07 00:26:35;;;;;;;;;;;12.40;99.90;;;;;;5082663;28;19928;-79
2022/05/07 00:29:02;;;;;;;;;;;12.40;99.90;;;;;;5068599;28;19972;-79
2022/05/07 00:31:28;;;;;;;;;;;12.40;99.90;;;;;;5065852;28;20367;-79
2022/05/07 00:33:55;;;;;;;;;;;12.40;99.90;;;;;;5062812;28;19936;-79
2022/05/07 00:36:21;;;;;;;;;;;12.30;99.90;;;;;;5080594;28;19924;-79
2022/05/07 00:38:48;;;;;;;;;;;12.20;99.90;;;;;;5055659;28;19943;-79
2022/05/07 00:41:14;;;;;;;;;;;12.20;99.90;;;;;;5072776;28;19931;-78
2022/05/07 00:43:41;;;;;;;;;;;12.30;99.90;;;;;;5054693;28;19932;-79
2022/05/07 00:46:07;;;;;;;;;;;12.20;99.90;;;;;;5080829;28;19924;-79
2022/05/07 00:48:34;;;;;;;;;;;12.20;99.90;;;;;;5067374;28;19931;-81
2022/05/07 00:53:45;;;;;;;;;;;12.10;99.90;;;;;;5071532;28;19924;-80
2022/05/07 00:56:12;;;;;;;;;;;12.10;99.90;;;;;;5066762;28;19924;-80
2022/05/07 00:58:39;;;;;;;;;;;12.10;99.90;;;;;;5082207;28;20032;-77
2022/05/07 01:01:05;;;;;;;;;;;12.10;99.90;;;;;;5071173;28;19954;-78
2022/05/07 01:03:32;;;;;;;;;;;12.10;99.90;;;;;;5059236;28;19924;-79
2022/05/07 01:05:59;;;;;;;;;;;12.10;99.90;;;;;;5083680;28;19933;-78
2022/05/07 01:08:26;;;;;;;;;;;12.20;99.90;;;;;;5071707;28;19928;-78
2022/05/07 01:10:52;;;;;;;;;;;12.20;99.90;;;;;;5065103;28;19980;-78
2022/05/07 01:13:19;;;;;;;;;;;12.20;99.90;;;;;;5076393;28;19939;-78
2022/05/07 01:15:46;;;;;;;;;;;12.20;99.90;;;;;;5058213;28;19936;-79
2022/05/07 01:18:12;;;;;;;;;;;12.20;99.90;;;;;;5089528;28;19924;-78
2022/05/07 01:20:39;;;;;;;;;;;12.20;99.90;;;;;;5073707;28;19924;-80
2022/05/07 01:23:05;;;;;;;;;;;12.20;99.90;;;;;;5094822;28;19928;-79
2022/05/07 01:25:32;;;;;;;;;;;12.20;99.90;;;;;;5058512;28;19925;-78
2022/05/07 01:27:58;;;;;;;;;;;12.20;99.90;;;;;;5078478;28;19932;-79
2022/05/07 01:30:25;;;;;;;;;;;12.20;99.90;;;;;;5088358;28;19935;-79
2022/05/07 01:32:52;;;;;;;;;;;12.20;99.90;;;;;;5079291;28;19924;-79
2022/05/07 01:35:18;;;;;;;;;;;12.20;99.90;;;;;;5066587;28;19930;-79
2022/05/07 01:37:45;;;;;;;;;;;12.20;99.90;;;;;;5085841;28;19925;-82
2022/05/07 01:40:12;;;;;;;;;;;12.20;99.90;;;;;;5076788;28;19931;-79
2022/05/07 01:42:39;;;;;;;;;;;12.10;99.90;;;;;;5059013;28;19978;-82
2022/05/07 01:45:05;;;;;;;;;;;12.10;99.90;;;;;;5067911;28;20034;-80
2022/05/07 01:50:16;;;;;;;;;;;12.10;99.90;;;;;;5077478;28;19995;-79
2022/05/07 01:52:43;;;;;;;;;;;12.10;99.90;;;;;;5074324;28;19929;-79
2022/05/07 01:55:09;;;;;;;;;;;12.10;99.90;;;;;;5085318;28;20375;-81
2022/05/07 01:57:36;;;;;;;;;;;12.10;99.90;;;;;;5065949;28;20369;-79
2022/05/07 02:00:02;;;;;;;;;;;12.10;99.90;;;;;;5061846;28;19931;-79
2022/05/07 02:02:29;;;;;;;;;;;12.00;99.90;;;;;;5060851;28;19935;-79
2022/05/07 02:04:55;;;;;;;;;;;12.00;99.90;;;;;;5057009;28;19925;-80
2022/05/07 02:07:22;;;;;;;;;;;12.00;99.90;;;;;;5064149;28;19931;-78
2022/05/07 02:09:48;;;;;;;;;;;12.00;99.90;;;;;;5069742;28;19949;-80
2022/05/07 02:12:15;;;;;;;;;;;12.00;99.90;;;;;;5084283;28;19932;-79
2022/05/07 02:14:42;;;;;;;;;;;12.00;99.90;;;;;;5056945;28;19932;-79
2022/05/07 02:17:09;;;;;;;;;;;11.90;99.90;;;;;;5070341;28;19947;-78
2022/05/07 02:19:35;;;;;;;;;;;12.00;99.90;;;;;;5077788;28;19970;-79
2022/05/07 02:22:02;;;;;;;;;;;12.00;99.90;;;;;;5055485;28;20752;-81
2022/05/07 02:24:28;;;;;;;;;;;12.00;99.90;;;;;;5068775;28;20359;-79
2022/05/07 02:26:55;;;;;;;;;;;12.00;99.90;;;;;;5082633;28;20030;-79
2022/05/07 02:29:21;;;;;;;;;;;12.10;99.90;;;;;;5065851;28;19924;-79
2022/05/07 02:34:30;;;;;;;;;;;12.00;99.90;;;;;;5075661;28;19924;-78
2022/05/07 02:36:56;;;;;;;;;;;12.00;99.90;;;;;;5062531;28;19928;-80
2022/05/07 02:39:23;;;;;;;;;;;12.00;99.90;;;;;;5084336;28;19932;-80
2022/05/07 02:44:34;;;;;;;;;;;12.00;99.90;;;;;;5056565;28;19928;-80
2022/05/07 02:47:00;;;;;;;;;;;12.00;99.90;;;;;;5060783;28;19931;-79
2022/05/07 02:49:27;;;;;;;;;;;12.00;99.90;;;;;;5058936;28;19935;-80
2022/05/07 02:51:53;;;;;;;;;;;12.00;99.90;;;;;;5055195;28;19936;-79
2022/05/07 02:54:20;;;;;;;;;;;12.00;99.90;;;;;;5080554;28;20345;-80
2022/05/07 02:56:46;;;;;;;;;;;12.00;99.90;;;;;;5066098;28;19924;-81
2022/05/07 02:59:13;;;;;;;;;;;12.00;99.90;;;;;;5066804;28;19947;-80
2022/05/07 03:01:41;;;;;;;;;;;12.00;99.90;;;;;;5072261;28;20363;-79
2022/05/07 03:04:08;;;;;;;;;;;12.00;99.90;;;;;;5073667;28;20020;-80
2022/05/07 03:06:34;;;;;;;;;;;12.00;99.90;;;;;;5055761;28;19932;-81
2022/05/07 03:09:01;;;;;;;;;;;12.10;99.90;;;;;;5064278;28;19928;-79
2022/05/07 03:11:27;;;;;;;;;;;12.10;99.90;;;;;;5055237;28;19925;-80
2022/05/07 03:13:54;;;;;;;;;;;12.10;99.90;;;;;;5076128;28;19928;-80
2022/05/07 03:16:21;;;;;;;;;;;12.10;99.90;;;;;;5069597;28;19931;-80
2022/05/07 03:18:47;;;;;;;;;;;12.10;99.90;;;;;;5074601;28;19932;-84
2022/05/07 03:21:14;;;;;;;;;;;12.10;99.90;;;;;;5062494;28;19932;-81
2022/05/07 03:23:42;;;;;;;;;;;12.10;99.90;;;;;;5060821;28;20345;-81
2022/05/07 03:26:08;;;;;;;;;;;12.10;99.90;;;;;;5067804;28;19951;-81
2022/05/07 03:28:35;;;;;;;;;;;12.10;99.90;;;;;;5092107;28;20286;-81
2022/05/07 03:31:01;;;;;;;;;;;12.10;99.90;;;;;;5062436;28;19928;-81
2022/05/07 03:33:28;;;;;;;;;;;12.10;99.90;;;;;;5086158;28;19935;-81
2022/05/07 03:35:54;;;;;;;;;;;12.10;99.90;;;;;;5063139;28;19936;-81
2022/05/07 03:38:22;;;;;;;;;;;12.10;99.90;;;;;;5063903;28;19931;-79
2022/05/07 03:40:48;;;;;;;;;;;12.20;99.90;;;;;;5065100;28;20015;-84
2022/05/07 03:43:15;;;;;;;;;;;12.20;99.90;;;;;;5067965;28;19974;-81
2022/05/07 03:45:42;;;;;;;;;;;12.20;99.90;;;;;;5065566;28;19924;-80
2022/05/07 03:48:09;;;;;;;;;;;12.10;99.90;;;;;;5069730;28;20712;-81
2022/05/07 03:50:35;;;;;;;;;;;12.10;99.90;;;;;;5064815;28;20275;-81
2022/05/07 03:55:46;;;;;;;;;;;12.20;99.90;;;;;;5064265;28;19924;-80
2022/05/07 03:58:15;;;;;;;;;;;12.20;99.90;;;;;;5067492;28;19925;-80
2022/05/07 04:00:42;;;;;;;;;;;12.20;99.90;;;;;;5054728;28;19925;-79
2022/05/07 04:03:08;;;;;;;;;;;12.20;99.90;;;;;;5062859;28;19950;-82
2022/05/07 04:05:35;;;;;;;;;;;12.20;99.90;;;;;;5092201;28;19930;-80
2022/05/07 04:08:02;;;;;;;;;;;12.20;99.90;;;;;;5071269;28;19931;-81
2022/05/07 04:10:28;;;;;;;;;;;12.20;99.90;;;;;;5063136;28;19978;-80
2022/05/07 04:12:55;;;;;;;;;;;12.20;99.90;;;;;;5058273;28;20069;-80
2022/05/07 04:15:21;;;;;;;;;;;12.30;99.90;;;;;;5062389;28;20006;-80
2022/05/07 04:17:48;;;;;;;;;;;12.30;99.90;;;;;;5061133;28;19928;-80
2022/05/07 04:20:14;;;;;;;;;;;12.30;99.90;;;;;;5073346;28;19933;-79
2022/05/07 04:22:41;;;;;;;;;;;12.30;99.90;;;;;;5060823;28;19931;-80
2022/05/07 04:25:07;;;;;;;;;;;12.30;99.90;;;;;;5060399;28;19935;-79
2022/05/07 04:27:34;;;;;;;;;;;12.40;99.90;;;;;;5085243;28;19931;-80
2022/05/07 04:30:00;;;;;;;;;;;12.40;99.90;;;;;;5060502;28;19932;-81
2022/05/07 04:32:27;;;;;;;;;;;12.40;99.90;;;;;;5061992;28;19940;-79
2022/05/07 04:34:55;;;;;;;;;;;12.40;99.90;;;;;;5064097;28;19925;-83
2022/05/07 04:37:23;;;;;;;;;;;12.40;99.90;;;;;;5058024;28;20441;-80
2022/05/07 04:39:50;;;;;;;;;;;12.50;99.90;;;;;;5058457;28;19924;-80
2022/05/07 04:42:16;;;;;;;;;;;12.50;99.90;;;;;;5057680;28;19929;-79
2022/05/07 04:44:43;;;;;;;;;;;12.50;99.90;;;;;;5072464;28;19931;-80
2022/05/07 04:47:09;;;;;;;;;;;12.50;99.90;;;;;;5064059;28;19931;-80
2022/05/07 04:49:36;;;;;;;;;;;12.50;99.90;;;;;;5063122;28;19925;-81
2022/05/07 04:52:02;;;;;;;;;;;12.60;99.90;;;;;;5062766;28;19930;-79
2022/05/07 04:54:29;;;;;;;;;;;12.60;99.90;;;;;;5057086;28;19924;-81
2022/05/07 04:56:56;;;;;;;;;;;12.60;99.90;;;;;;5062320;28;19928;-81
2022/05/07 04:59:22;;;;;;;;;;;12.70;99.90;;;;;;5060533;28;20019;-80
2022/05/07 05:01:49;;;;;;;;;;;12.70;99.90;;;;;;5061490;28;19932;-80
2022/05/07 05:04:15;;;;;;;;;;;12.70;99.90;;;;;;5072861;28;19920;-79
2022/05/07 05:06:42;;;;;;;;;;;12.70;99.90;;;;;;5060966;28;19976;-80
2022/05/07 05:09:09;;;;;;;;;;;12.70;99.90;;;;;;5058091;28;19970;-81
2022/05/07 05:11:37;;;;;;;;;;;12.80;99.90;;;;;;5077890;28;20386;-82
2022/05/07 05:15:01;;;;;;;;;;;12.80;99.90;;;;;;5049945;28;19983;-80
2022/05/07 05:16:51;;;;;;;;;;;12.80;99.90;;;;;;5058091;28;19924;-80
2022/05/07 05:19:17;;;;;;;;;;;12.90;99.90;;;;;;5055948;28;19933;-80
2022/05/07 05:21:44;;;;;;;;;;;12.90;99.90;;;;;;5051291;28;19931;-80
2022/05/07 05:24:10;;;;;;;;;;;12.90;99.90;;;;;;5050333;28;19928;-81
2022/05/07 05:26:37;;;;;;;;;;;13.00;99.90;;;;;;5053968;28;19929;-82
2022/05/07 05:29:03;;;;;;;;;;;13.10;99.90;;;;;;5061745;28;19925;-80
2022/05/07 05:31:30;;;;;;;;;;;13.10;99.90;;;;;;5065088;28;19924;-80
2022/05/07 05:33:57;;;;;;;;;;;13.20;99.90;;;;;;5055495;28;19951;-83
2022/05/07 05:36:26;;;;;;;;;;;13.10;99.90;;;;;;5053663;28;19925;-80
2022/05/07 05:38:53;;;;;;;;;;;13.20;99.90;;;;;;5054133;28;20445;-79
2022/05/07 05:41:20;;;;;;;;;;;13.30;99.90;;;;;;5066216;28;19931;-79
2022/05/07 05:43:46;;;;;;;;;;;13.30;99.90;;;;;;5055329;28;19925;-80
2022/05/07 05:46:14;;;;;;;;;;;13.40;99.90;;;;;;5060730;28;19987;-80
2022/05/07 05:48:40;;;;;;;;;;;13.30;99.90;;;;;;5064721;28;19929;-81
2022/05/07 05:51:07;;;;;;;;;;;13.40;99.90;;;;;;5068371;28;19924;-80
2022/05/07 05:53:33;;;;;;;;;;;13.40;99.90;;;;;;5058267;28;19932;-79
2022/05/07 05:56:00;;;;;;;;;;;13.40;99.90;;;;;;5067803;28;19976;-82
2022/05/07 05:58:33;;;;;;;;;;;13.50;99.90;;;;;;5069598;28;19978;-78
2022/05/07 06:00:59;;;;;;;;;;;13.50;99.90;;;;;;5067067;28;20276;-80
2022/05/07 06:03:26;;;;;;;;;;;13.50;99.90;;;;;;5070307;28;19931;-79
2022/05/07 06:05:53;;;;;;;;;;;13.50;99.90;;;;;;5068992;28;19939;-79
2022/05/07 06:08:19;;;;;;;;;;;13.60;99.90;;;;;;5068778;28;19925;-82
2022/05/07 06:10:46;;;;;;;;;;;13.60;99.90;;;;;;5070572;28;19932;-80
2022/05/07 06:13:12;;;;;;;;;;;13.60;99.90;;;;;;5075596;28;20279;-78
2022/05/07 06:15:39;;;;;;;;;;;13.70;99.90;;;;;;5075243;28;19928;-79
2022/05/07 06:18:05;;;;;;;;;;;13.70;99.90;;;;;;5075913;28;19924;-81
2022/05/07 06:20:32;;;;;;;;;;;13.70;99.90;;;;;;5090338;28;20447;-79
2022/05/07 06:22:59;;;;;;;;;;;13.80;99.90;;;;;;5081498;28;19928;-79
2022/05/07 06:28:10;;;;;;;;;;;13.90;99.90;;;;;;5078073;28;19954;-79
2022/05/07 06:30:36;;;;;;;;;;;14.00;99.90;;;;;;5077300;28;19924;-79
2022/05/07 06:33:03;;;;;;;;;;;14.00;99.90;;;;;;5090207;28;19928;-82
2022/05/07 06:35:29;;;;;;;;;;;14.10;99.90;;;;;;5092376;28;19924;-79
2022/05/07 06:37:56;;;;;;;;;;;14.10;99.90;;;;;;5084622;28;19931;-81
2022/05/07 06:40:22;;;;;;;;;;;14.20;99.90;;;;;;5088657;28;20026;-81
2022/05/07 06:42:49;;;;;;;;;;;14.30;99.90;;;;;;5082042;28;19928;-79
2022/05/07 06:45:16;;;;;;;;;;;14.30;99.90;;;;;;5091237;28;19932;-79
2022/05/07 06:47:42;;;;;;;;;;;14.40;99.90;;;;;;5090917;28;19931;-79
2022/05/07 06:50:09;;;;;;;;;;;14.50;99.90;;;;;;5081207;28;19935;-81
2022/05/07 06:52:37;;;;;;;;;;;14.50;99.90;;;;;;5086293;28;19924;-79
2022/05/07 06:55:03;;;;;;;;;;;14.60;99.90;;;;;;5077023;28;19931;-83
2022/05/07 06:57:30;;;;;;;;;;;14.60;99.90;;;;;;5081944;28;19931;-79
2022/05/07 06:59:56;;;;;;;;;;;14.70;99.90;;;;;;5084989;28;19931;-79
2022/05/07 07:02:23;;;;;;;;;;;14.80;99.90;;;;;;5090075;28;19935;-80
2022/05/07 07:04:49;;;;;;;;;;;14.90;99.90;;;;;;5090573;28;19924;-79
2022/05/07 07:07:24;;;;;;;;;;;15.00;99.90;;;;;;5088619;28;19994;-79
2022/05/07 07:09:51;;;;;;;;;;;15.10;99.90;;;;;;5087206;28;19969;-79
2022/05/07 07:12:17;;;;;;;;;;;15.10;99.90;;;;;;5069179;28;19946;-79
2022/05/07 07:14:44;;;;;;;;;;;15.20;99.90;;;;;;5077677;28;19925;-79
2022/05/07 07:17:10;;;;;;;;;;;15.30;99.90;;;;;;5083570;28;20313;-79
2022/05/07 07:19:39;;;;;;;;;;;15.30;99.90;;;;;;5091969;28;20304;-79
2022/05/07 07:22:07;;;;;;;;;;;15.40;99.90;;;;;;5075541;28;19930;-82
2022/05/07 07:24:33;;;;;;;;;;;15.40;99.90;;;;;;5079937;28;20401;-81
2022/05/07 07:27:00;;;;;;;;;;;15.60;99.90;;;;;;5082881;28;19939;-80
2022/05/07 07:29:26;;;;;;;;;;;15.70;99.90;;;;;;5070235;28;19920;-78
2022/05/07 07:31:53;;;;;;;;;;;15.90;99.90;;;;;;5084150;28;20375;-81
2022/05/07 07:34:21;;;;;;;;;;;16.10;99.90;;;;;;5090736;28;20375;-79
2022/05/07 07:36:49;;;;;;;;;;;16.10;99.90;;;;;;5081105;28;19924;-78
2022/05/07 07:39:16;;;;;;;;;;;16.10;99.90;;;;;;5089019;28;20029;-79
2022/05/07 07:41:43;;;;;;;;;;;16.10;99.90;;;;;;5075421;28;19928;-82
2022/05/07 07:44:09;;;;;;;;;;;16.10;99.90;;;;;;5079424;28;20347;-82
2022/05/07 07:49:35;;;;;;;;;;;16.20;99.90;;;;;;5014450;28;20007;-83
2022/05/07 07:52:02;;;;;;;;;;;16.30;99.90;;;;;;5026732;28;20692;-82
2022/05/07 07:54:29;;;;;;;;;;;16.20;99.90;;;;;;5041058;28;20010;-83
2022/05/07 07:56:56;;;;;;;;;;;16.30;99.90;;;;;;5082970;28;19961;-81
2022/05/07 07:59:23;;;;;;;;;;;16.40;99.90;;;;;;5076703;28;20375;-82
2022/05/07 08:01:49;;;;;;;;;;;16.60;99.90;;;;;;5074855;28;19928;-82
2022/05/07 08:04:16;;;;;;;;;;;16.60;99.90;;;;;;5085089;28;20000;-82
2022/05/07 08:06:42;;;;;;;;;;;16.80;99.90;;;;;;5073469;28;19928;-81
2022/05/07 08:11:56;;;;;;;;;;;16.80;99.90;;;;;;5063350;28;19924;-82
2022/05/07 08:14:22;;;;;;;;;;;16.80;99.90;;;;;;5084910;28;20391;-81
2022/05/07 08:16:49;;;;;;;;;;;16.80;99.90;;;;;;5087476;28;19928;-82
2022/05/07 08:19:16;;;;;;;;;;;16.80;99.90;;;;;;5086985;28;20367;-82
2022/05/07 08:21:43;;;;;;;;;;;16.90;99.90;;;;;;5070296;28;20371;-82
2022/05/07 08:24:09;;;;;;;;;;;17.00;99.90;;;;;;5087526;28;19924;-86
2022/05/07 08:26:36;;;;;;;;;;;17.00;99.90;;;;;;5071896;28;19974;-82
2022/05/07 08:29:03;;;;;;;;;;;17.10;99.90;;;;;;5076113;28;19924;-81
2022/05/07 08:31:29;;;;;;;;;;;17.20;99.90;;;;;;5071613;28;20026;-82
2022/05/07 08:33:56;;;;;;;;;;;17.30;99.90;;;;;;5090545;28;19924;-82
2022/05/07 08:36:22;;;;;;;;;;;17.30;99.90;;;;;;5090185;28;19924;-81
2022/05/07 08:38:49;;;;;;;;;;;17.40;99.90;;;;;;5075356;28;19942;-80
2022/05/07 08:41:15;;;;;;;;;;;17.50;99.90;;;;;;5072616;28;19924;-82
2022/05/07 08:43:42;;;;;;;;;;;17.50;99.90;;;;;;5090988;28;19924;-82
2022/05/07 08:46:10;;;;;;;;;;;17.60;99.90;;;;;;5073260;28;19928;-81
2022/05/07 08:48:36;;;;;;;;;;;17.60;99.90;;;;;;5078875;28;19948;-81
2022/05/07 08:51:03;;;;;;;;;;;17.60;99.90;;;;;;5079122;28;20379;-81
2022/05/07 08:53:30;;;;;;;;;;;17.60;99.90;;;;;;5071430;28;19924;-81
2022/05/07 08:55:57;;;;;;;;;;;17.50;99.90;;;;;;5062585;28;19973;-82
2022/05/07 08:58:23;;;;;;;;;;;17.50;99.90;;;;;;5063031;28;19924;-83
2022/05/07 09:00:50;;;;;;;;;;;17.50;99.90;;;;;;5055481;28;19925;-82
2022/05/07 09:03:16;;;;;;;;;;;17.60;99.90;;;;;;5071242;28;19928;-82
2022/05/07 09:05:43;;;;;;;;;;;17.60;99.90;;;;;;5061415;28;19985;-82
2022/05/07 09:08:11;;;;;;;;;;;17.70;99.90;;;;;;5090039;28;19931;-82
2022/05/07 09:10:38;;;;;;;;;;;17.90;99.90;;;;;;5059196;28;19929;-83
2022/05/07 09:13:04;;;;;;;;;;;18.20;99.90;;;;;;5081973;28;19924;-83
2022/05/07 09:15:31;;;;;;;;;;;18.30;99.90;;;;;;5078645;28;19928;-82
2022/05/07 09:17:57;;;;;;;;;;;18.20;99.90;;;;;;5062620;28;19940;-82
2022/05/07 09:20:26;;;;;;;;;;;18.50;99.90;;;;;;5068153;28;19936;-82
2022/05/07 09:22:53;;;;;;;;;;;18.60;99.90;;;;;;5071109;28;20375;-82
2022/05/07 09:25:20;;;;;;;;;;;18.40;99.90;;;;;;5080664;28;19929;-83
2022/05/07 09:27:47;;;;;;;;;;;18.30;99.90;;;;;;5064228;28;20425;-82
2022/05/07 09:30:13;;;;;;;;;;;18.40;99.90;;;;;;5067722;28;19974;-83
2022/05/07 09:32:40;;;;;;;;;;;18.50;99.90;;;;;;5079532;28;19935;-82
2022/05/07 09:37:51;;;;;;;;;;;18.60;99.90;;;;;;5076977;28;19967;-82
2022/05/07 09:40:17;;;;;;;;;;;18.60;99.90;;;;;;5081950;28;19928;-85
2022/05/07 09:42:44;;;;;;;;;;;18.20;99.90;;;;;;5065748;28;19924;-83
2022/05/07 09:45:10;;;;;;;;;;;18.20;99.90;;;;;;5076719;28;19924;-82
2022/05/07 09:47:37;;;;;;;;;;;18.10;99.90;;;;;;5073771;28;19951;-82
2022/05/07 09:50:24;;;;;;;;;;;18.10;99.90;;;;;;5089315;28;19924;-81
2022/05/07 09:58:33;;;;;;;;;;;18.30;99.90;;;;;;4979382;28;20044;-82
2022/05/07 10:01:00;;;;;;;;;;;18.50;99.90;;;;;;5016412;28;19932;-83
2022/05/07 10:03:27;;;;;;;;;;;18.70;99.90;;;;;;5079743;28;20448;-82
2022/05/07 10:05:54;;;;;;;;;;;18.70;99.90;;;;;;5068292;28;19932;-82
2022/05/07 10:08:20;;;;;;;;;;;18.70;99.90;;;;;;5074489;28;19928;-86
2022/05/07 10:10:47;;;;;;;;;;;18.50;99.90;;;;;;5061751;28;19928;-82
2022/05/07 10:13:14;;;;;;;;;;;18.40;99.90;;;;;;5063555;28;19929;-82
2022/05/07 10:15:40;;;;;;;;;;;18.30;99.90;;;;;;5056278;28;19924;-83
2022/05/07 10:18:07;;;;;;;;;;;18.30;99.90;;;;;;5063866;28;20007;-83
2022/05/07 10:20:34;;;;;;;;;;;18.40;99.90;;;;;;5087326;28;20379;-83
2022/05/07 10:23:01;;;;;;;;;;;18.30;99.90;;;;;;5057581;28;19983;-83
2022/05/07 10:25:27;;;;;;;;;;;18.30;99.90;;;;;;5084849;28;19925;-84
2022/05/07 10:27:54;;;;;;;;;;;18.40;99.90;;;;;;5062397;28;19928;-84
2022/05/07 10:30:21;;;;;;;;;;;18.40;99.90;;;;;;5068988;28;20014;-87
2022/05/07 10:32:48;;;;;;;;;;;18.40;99.90;;;;;;5066667;28;19930;-83
2022/05/07 10:35:16;;;;;;;;;;;18.40;99.90;;;;;;5072456;28;19925;-84
2022/05/07 10:37:43;;;;;;;;;;;18.40;99.90;;;;;;5078627;28;19928;-83
2022/05/07 10:40:09;;;;;;;;;;;18.30;99.90;;;;;;5080292;28;19935;-83
2022/05/07 10:42:36;;;;;;;;;;;18.20;99.90;;;;;;5090871;28;20011;-82
2022/05/07 10:45:03;;;;;;;;;;;18.20;99.90;;;;;;5078718;28;19931;-83
2022/05/07 10:47:29;;;;;;;;;;;18.30;99.90;;;;;;5079628;28;20386;-83
2022/05/07 10:49:56;;;;;;;;;;;18.40;99.90;;;;;;5075825;28;19924;-83
2022/05/07 10:52:23;;;;;;;;;;;18.30;99.90;;;;;;5073252;28;19928;-88
2022/05/07 10:54:49;;;;;;;;;;;18.40;99.90;;;;;;5091770;28;20021;-83
2022/05/07 10:57:16;;;;;;;;;;;18.20;99.90;;;;;;5085358;28;19924;-83
2022/05/07 10:59:42;;;;;;;;;;;18.20;99.90;;;;;;5085196;28;20408;-83
2022/05/07 11:02:10;;;;;;;;;;;18.30;99.90;;;;;;5090980;28;20389;-87
2022/05/07 11:04:36;;;;;;;;;;;18.50;99.90;;;;;;5091372;28;19946;-84
2022/05/07 11:07:03;;;;;;;;;;;18.40;99.90;;;;;;5090772;28;19932;-84
2022/05/07 11:09:29;;;;;;;;;;;18.40;99.90;;;;;;5084294;28;19928;-84
2022/05/07 11:11:56;;;;;;;;;;;18.40;99.90;;;;;;5076213;28;19932;-80
2022/05/07 11:14:23;;;;;;;;;;;18.30;99.90;;;;;;5091039;28;19974;-78
2022/05/07 11:16:50;;;;;;;;;;;18.20;99.90;;;;;;5072084;28;20373;-83
2022/05/07 11:19:16;;;;;;;;;;;18.30;99.90;;;;;;5060595;28;19947;-83
2022/05/07 11:21:46;;;;;;;;;;;18.30;99.90;;;;;;5078792;28;19928;-83
2022/05/07 11:24:13;;;;;;;;;;;18.30;99.90;;;;;;5066678;28;19928;-83
2022/05/07 11:26:39;;;;;;;;;;;18.40;99.90;;;;;;5085618;28;19928;-84
2022/05/07 11:29:06;;;;;;;;;;;18.30;99.90;;;;;;5079719;28;19932;-83
2022/05/07 11:31:33;;;;;;;;;;;18.30;99.90;;;;;;5064387;28;19947;-83
2022/05/07 11:34:00;;;;;;;;;;;18.40;99.90;;;;;;5083268;28;20290;-82
2022/05/07 11:36:26;;;;;;;;;;;18.50;99.90;;;;;;5065733;28;19924;-87
2022/05/07 11:38:53;;;;;;;;;;;18.50;99.90;;;;;;5068283;28;19924;-82
2022/05/07 11:41:19;;;;;;;;;;;18.60;99.90;;;;;;5067072;28;19928;-83
2022/05/07 11:46:30;;;;;;;;;;;18.60;99.90;;;;;;5086616;28;19928;-84
2022/05/07 11:48:56;;;;;;;;;;;18.50;99.90;;;;;;5060561;28;19932;-86
2022/05/07 11:51:23;;;;;;;;;;;18.50;99.90;;;;;;5077213;28;19924;-80
2022/05/07 11:53:49;;;;;;;;;;;18.60;99.90;;;;;;5086134;28;19928;-78
2022/05/07 11:56:16;;;;;;;;;;;18.60;99.90;;;;;;5061303;28;19932;-79
2022/05/07 11:58:42;;;;;;;;;;;18.60;99.90;;;;;;5081022;28;19931;-78
2022/05/07 12:01:10;;;;;;;;;;;18.80;99.90;;;;;;5072235;28;19977;-81
2022/05/07 12:03:36;;;;;;;;;;;19.00;99.90;;;;;;5069555;28;19924;-78
2022/05/07 12:06:03;;;;;;;;;;;19.10;99.90;;;;;;5063932;28;19936;-78
2022/05/07 12:08:29;;;;;;;;;;;19.30;99.90;;;;;;5084088;28;19933;-85
2022/05/07 12:10:56;;;;;;;;;;;19.20;99.90;;;;;;5078469;28;19932;-79
2022/05/07 12:13:22;;;;;;;;;;;19.10;99.90;;;;;;5055744;28;19932;-84
2022/05/07 12:18:33;;;;;;;;;;;19.10;99.90;;;;;;5076408;28;19928;-85
2022/05/07 12:21:00;;;;;;;;;;;19.00;99.90;;;;;;5067763;28;19954;-85
2022/05/07 12:31:39;;;;;;;;;;;18.50;99.90;;;;;;5070049;28;20371;-84
2022/05/07 12:34:06;;;;;;;;;;;18.40;99.90;;;;;;5077273;28;20402;-85
2022/05/07 12:36:32;;;;;;;;;;;18.30;99.90;;;;;;5066168;28;19928;-89
2022/05/07 12:38:59;;;;;;;;;;;18.30;99.90;;;;;;5057777;28;19947;-86
2022/05/07 12:41:26;;;;;;;;;;;18.30;99.90;;;;;;5056567;28;19976;-85
2022/05/07 12:43:52;;;;;;;;;;;18.40;99.90;;;;;;5079017;28;20008;-85
2022/05/07 12:46:19;;;;;;;;;;;18.40;99.90;;;;;;5077687;28;19924;-86
2022/05/07 12:48:46;;;;;;;;;;;18.40;99.90;;;;;;5054459;28;20347;-85
2022/05/07 12:51:13;;;;;;;;;;;18.40;99.90;;;;;;5078561;28;20029;-85
2022/05/07 12:53:40;;;;;;;;;;;18.50;99.90;;;;;;5069386;28;19935;-85
2022/05/07 12:56:07;;;;;;;;;;;18.60;99.90;;;;;;5066999;28;20031;-84
2022/05/07 12:58:34;;;;;;;;;;;18.60;99.90;;;;;;5069401;28;19925;-89
2022/05/07 13:01:01;;;;;;;;;;;18.70;99.90;;;;;;5088471;28;19938;-84
2022/05/07 13:03:27;;;;;;;;;;;18.70;99.90;;;;;;5060368;28;19924;-88
2022/05/07 13:05:54;;;;;;;;;;;18.70;99.90;;;;;;5069050;28;19928;-88
2022/05/07 13:08:21;;;;;;;;;;;18.70;99.90;;;;;;5066728;28;19931;-88
2022/05/07 13:10:47;;;;;;;;;;;18.70;99.90;;;;;;5062984;28;19931;-88
2022/05/07 13:13:14;;;;;;;;;;;18.70;99.90;;;;;;5058714;28;19924;-87
2022/05/07 13:15:40;;;;;;;;;;;18.70;99.90;;;;;;5063828;28;19928;-88
2022/05/07 13:18:07;;;;;;;;;;;18.80;99.90;;;;;;5057421;28;19925;-88
2022/05/07 13:20:34;;;;;;;;;;;18.70;99.90;;;;;;5070522;28;19932;-87
2022/05/07 13:23:00;;;;;;;;;;;18.60;99.90;;;;;;5056555;28;19932;-83
2022/05/07 13:25:27;;;;;;;;;;;18.50;99.90;;;;;;5080821;28;19924;-86
2022/05/07 13:27:53;;;;;;;;;;;18.40;99.90;;;;;;5064927;28;19928;-86
2022/05/07 13:30:21;;;;;;;;;;;18.30;99.90;;;;;;5055765;28;19929;-84
2022/05/07 13:32:48;;;;;;;;;;;18.40;99.90;;;;;;5055939;28;19998;-86
2022/05/07 13:35:15;;;;;;;;;;;18.40;99.90;;;;;;5083907;28;19928;-85
2022/05/07 13:37:42;;;;;;;;;;;18.50;99.90;;;;;;5069559;28;19971;-83
2022/05/07 13:40:08;;;;;;;;;;;18.60;99.90;;;;;;5054590;28;19932;-85
2022/05/07 13:42:35;;;;;;;;;;;18.60;99.90;;;;;;5063614;28;19931;-78
2022/05/07 13:45:01;;;;;;;;;;;18.70;99.90;;;;;;5084598;28;19931;-84
2022/05/07 13:47:28;;;;;;;;;;;18.70;99.90;;;;;;5080088;28;19924;-85
2022/05/07 13:49:55;;;;;;;;;;;18.70;99.90;;;;;;5077418;28;19999;-84
2022/05/07 13:52:21;;;;;;;;;;;18.60;99.90;;;;;;5080756;28;20282;-85
2022/05/07 13:54:48;;;;;;;;;;;18.40;99.90;;;;;;5073123;28;20016;-85
2022/05/07 13:57:16;;;;;;;;;;;18.20;99.90;;;;;;5083303;28;19931;-84
2022/05/07 13:59:42;;;;;;;;;;;18.10;99.90;;;;;;5073748;28;20658;-85
2022/05/07 14:02:09;;;;;;;;;;;18.10;99.90;;;;;;5078941;28;20696;-84
2022/05/07 14:04:35;;;;;;;;;;;18.10;99.90;;;;;;5075670;28;19946;-86
2022/05/07 14:07:02;;;;;;;;;;;18.10;99.90;;;;;;5087359;28;19930;-84
2022/05/07 14:09:29;;;;;;;;;;;18.10;99.90;;;;;;5085493;28;19928;-84
2022/05/07 14:11:55;;;;;;;;;;;18.00;99.90;;;;;;5080355;28;19924;-84
2022/05/07 14:14:22;;;;;;;;;;;17.90;99.90;;;;;;5080097;28;19924;-84
2022/05/07 14:16:48;;;;;;;;;;;17.80;99.90;;;;;;5090241;28;19924;-84
2022/05/07 14:19:15;;;;;;;;;;;17.80;99.90;;;;;;5081330;28;19924;-85
2022/05/07 14:21:43;;;;;;;;;;;17.70;99.90;;;;;;5086312;28;19924;-86
2022/05/07 14:24:09;;;;;;;;;;;17.60;99.90;;;;;;5087800;28;19924;-85
2022/05/07 14:26:36;;;;;;;;;;;17.70;99.90;;;;;;5092583;28;19931;-85
2022/05/07 14:29:03;;;;;;;;;;;17.70;99.90;;;;;;5089260;28;19921;-83
2022/05/07 14:31:29;;;;;;;;;;;17.70;99.90;;;;;;5088711;28;19924;-85
2022/05/07 14:33:58;;;;;;;;;;;17.50;99.90;;;;;;5080284;28;19942;-84
2022/05/07 14:36:29;;;;;;;;;;;17.60;99.90;;;;;;5089672;28;19925;-84
2022/05/07 14:38:56;;;;;;;;;;;17.60;99.90;;;;;;5058994;28;19928;-80
2022/05/07 14:41:22;;;;;;;;;;;17.70;99.90;;;;;;5080254;28;20378;-84
2022/05/07 14:43:49;;;;;;;;;;;17.70;99.90;;;;;;5067096;28;19924;-84
2022/05/07 14:46:16;;;;;;;;;;;17.80;99.90;;;;;;5081821;28;19924;-84
2022/05/07 14:48:43;;;;;;;;;;;17.70;99.90;;;;;;5081745;28;19925;-84
2022/05/07 14:51:10;;;;;;;;;;;17.70;99.90;;;;;;5077918;28;20018;-84
2022/05/07 14:53:36;;;;;;;;;;;17.60;99.90;;;;;;5063717;28;19924;-85
2022/05/07 14:56:03;;;;;;;;;;;17.50;99.90;;;;;;5066147;28;19977;-85
2022/05/07 14:58:30;;;;;;;;;;;17.60;99.90;;;;;;5066578;28;19932;-84
2022/05/07 15:00:56;;;;;;;;;;;17.60;99.90;;;;;;5069552;28;19947;-84